Time,TemperatureF,DewpointF,PressureIn,WindDirection,WindDirectionDegrees,WindSpeedMPH,WindSpeedGustMPH,Humidity,HourlyPrecipIn,Conditions,Clouds,dailyrainin,SoftwareType,DateUTC
2014-12-25 00:04:00,39.7,26.6,30.14,SW,233,3.0,3.0,59,0.00,,OVC,0.00,VWS V15.00,2014-12-25 05:04:00,
2014-12-25 00:11:00,39.1,26.4,30.14,SW,233,3.0,4.0,60,0.00,,OVC,0.00,VWS V15.00,2014-12-25 05:11:00,
2014-12-25 00:16:00,39.2,26.5,30.14,WSW,248,2.0,4.0,60,0.00,,OVC,0.00,VWS V15.00,2014-12-25 05:16:00,
2014-12-25 00:22:00,39.5,26.4,30.14,WSW,251,2.0,4.0,59,0.00,,OVC,0.00,VWS V15.00,2014-12-25 05:22:00,
2014-12-25 00:27:00,40.3,26.3,30.14,WSW,251,4.0,4.0,57,0.00,,OVC,0.00,VWS V15.00,2014-12-25 05:27:00,
2014-12-25 00:34:00,41.3,25.9,30.13,WSW,251,3.0,5.0,54,0.00,,OVC,0.00,VWS V15.00,2014-12-25 05:34:00,
2014-12-25 00:39:00,42.2,25.9,30.14,WSW,251,4.0,6.0,52,0.00,,OVC,0.00,VWS V15.00,2014-12-25 05:39:00,
2014-12-25 00:44:00,42.5,26.1,30.13,West,264,2.0,6.0,52,0.00,,OVC,0.00,VWS V15.00,2014-12-25 05:44:00,
2014-12-25 00:49:00,42.5,25.7,30.13,West,263,4.0,6.0,51,0.00,,OVC,0.00,VWS V15.00,2014-12-25 05:49:00,
2014-12-25 00:54:00,42.1,25.8,30.13,West,271,2.0,6.0,52,0.00,,OVC,0.00,VWS V15.00,2014-12-25 05:54:00,
2014-12-25 00:59:00,41.3,25.5,30.12,WNW,288,2.0,6.0,53,0.00,,OVC,0.00,VWS V15.00,2014-12-25 05:59:00,
2014-12-25 01:04:00,40.6,25.7,30.12,West,264,1.0,2.0,55,0.00,,OVC,0.00,VWS V15.00,2014-12-25 06:04:00,
2014-12-25 01:09:00,39.9,26.3,30.13,SSE,148,0.0,2.0,58,0.00,,OVC,0.00,VWS V15.00,2014-12-25 06:09:00,
2014-12-25 01:14:00,38.5,25.8,30.13,SE,135,0.0,2.0,60,0.00,,OVC,0.00,VWS V15.00,2014-12-25 06:14:00,
2014-12-25 01:20:00,37.3,26.3,30.13,WSW,243,2.0,5.0,64,0.00,,OVC,0.00,VWS V15.00,2014-12-25 06:20:00,
2014-12-25 01:25:00,37.2,26.5,30.13,SSW,210,3.0,5.0,65,0.00,,OVC,0.00,VWS V15.00,2014-12-25 06:25:00,
2014-12-25 01:30:00,36.9,26.6,30.13,SSW,210,3.0,6.0,66,0.00,,OVC,0.00,VWS V15.00,2014-12-25 06:30:00,
2014-12-25 01:35:00,36.3,26.4,30.13,SSW,212,2.0,7.0,67,0.00,,OVC,0.00,VWS V15.00,2014-12-25 06:35:00,
2014-12-25 01:42:00,36.1,26.6,30.13,SSW,212,7.0,8.0,68,0.00,,OVC,0.00,VWS V15.00,2014-12-25 06:42:00,
2014-12-25 01:47:00,36.2,26.7,30.13,SW,222,7.0,8.0,68,0.00,,OVC,0.00,VWS V15.00,2014-12-25 06:47:00,
2014-12-25 01:52:00,36.1,26.6,30.13,SW,215,4.0,8.0,68,0.00,,OVC,0.00,VWS V15.00,2014-12-25 06:52:00,
2014-12-25 01:58:00,35.9,26.4,30.12,SSW,213,4.0,8.0,68,0.00,,OVC,0.00,VWS V15.00,2014-12-25 06:58:00,
2014-12-25 02:03:00,36.0,26.5,30.13,South,172,4.0,4.0,68,0.00,,OVC,0.00,VWS V15.00,2014-12-25 07:03:00,
2014-12-25 02:09:00,35.8,26.6,30.13,SSW,207,7.0,7.0,69,0.00,,OVC,0.00,VWS V15.00,2014-12-25 07:09:00,
2014-12-25 02:15:00,36.5,26.6,30.13,WSW,252,5.0,7.0,67,0.00,,OVC,0.00,VWS V15.00,2014-12-25 07:15:00,
2014-12-25 02:21:00,36.6,26.7,30.12,SSW,210,3.0,8.0,67,0.00,,OVC,0.00,VWS V15.00,2014-12-25 07:21:00,
2014-12-25 02:26:00,36.0,26.8,30.12,SSW,200,3.0,8.0,69,0.00,,OVC,0.00,VWS V15.00,2014-12-25 07:26:00,
2014-12-25 02:31:00,35.3,26.5,30.12,SW,217,3.0,3.0,70,0.00,,OVC,0.00,VWS V15.00,2014-12-25 07:31:00,
2014-12-25 02:36:00,34.6,26.5,30.12,SW,214,4.0,5.0,72,0.00,,OVC,0.00,VWS V15.00,2014-12-25 07:36:00,
2014-12-25 02:41:00,34.1,26.4,30.12,SW,217,5.0,5.0,73,0.00,,OVC,0.00,VWS V15.00,2014-12-25 07:41:00,
2014-12-25 02:46:00,34.1,26.7,30.12,SSW,207,4.0,7.0,74,0.00,,OVC,0.00,VWS V15.00,2014-12-25 07:46:00,
2014-12-25 02:52:00,34.5,26.8,30.13,South,190,5.0,8.0,73,0.00,,OVC,0.00,VWS V15.00,2014-12-25 07:52:00,
2014-12-25 02:57:00,34.9,26.8,30.12,SW,214,3.0,8.0,72,0.00,,OVC,0.00,VWS V15.00,2014-12-25 07:57:00,
2014-12-25 03:02:00,34.8,26.7,30.12,WSW,239,3.0,4.0,72,0.00,,OVC,0.00,VWS V15.00,2014-12-25 08:02:00,
2014-12-25 03:07:00,34.9,26.5,30.12,WSW,238,2.0,6.0,71,0.00,,OVC,0.00,VWS V15.00,2014-12-25 08:07:00,
2014-12-25 03:13:00,34.9,26.5,30.12,SW,232,4.0,6.0,71,0.00,,OVC,0.00,VWS V15.00,2014-12-25 08:13:00,
2014-12-25 03:18:00,35.1,26.3,30.12,SW,221,3.0,6.0,70,0.00,,OVC,0.00,VWS V15.00,2014-12-25 08:18:00,
2014-12-25 03:24:00,35.5,26.4,30.13,SSW,213,3.0,7.0,69,0.00,,OVC,0.00,VWS V15.00,2014-12-25 08:24:00,
2014-12-25 03:29:00,35.8,26.6,30.13,SSW,210,5.0,7.0,69,0.00,,OVC,0.00,VWS V15.00,2014-12-25 08:29:00,
2014-12-25 03:34:00,36.0,26.5,30.13,SSW,210,5.0,6.0,68,0.00,,OVC,0.00,VWS V15.00,2014-12-25 08:34:00,
2014-12-25 03:39:00,36.7,26.8,30.13,SW,223,6.0,10.0,67,0.00,,OVC,0.00,VWS V15.00,2014-12-25 08:39:00,
2014-12-25 03:44:00,37.6,26.5,30.13,South,191,8.0,14.0,64,0.00,,OVC,0.00,VWS V15.00,2014-12-25 08:44:00,
2014-12-25 03:50:00,38.7,26.8,30.13,WSW,249,7.0,14.0,62,0.00,,OVC,0.00,VWS V15.00,2014-12-25 08:50:00,
2014-12-25 03:55:00,39.0,26.7,30.12,SW,217,6.0,14.0,61,0.00,,OVC,0.00,VWS V15.00,2014-12-25 08:55:00,
2014-12-25 04:00:00,39.1,26.8,30.13,SW,214,6.0,14.0,61,0.00,,OVC,0.00,VWS V15.00,2014-12-25 09:00:00,
2014-12-25 04:06:00,38.9,26.6,30.13,SSW,200,3.0,10.0,61,0.00,,OVC,0.00,VWS V15.00,2014-12-25 09:06:00,
2014-12-25 04:11:00,38.6,26.7,30.13,SSW,206,4.0,10.0,62,0.00,,OVC,0.00,VWS V15.00,2014-12-25 09:11:00,
2014-12-25 04:17:00,38.3,26.4,30.13,SW,236,3.0,10.0,62,0.00,,OVC,0.00,VWS V15.00,2014-12-25 09:17:00,
2014-12-25 04:22:00,37.9,26.5,30.13,SW,219,3.0,10.0,63,0.00,,OVC,0.00,VWS V15.00,2014-12-25 09:22:00,
2014-12-25 04:30:00,37.5,26.5,30.13,SSW,200,3.0,10.0,64,0.00,,OVC,0.00,VWS V15.00,2014-12-25 09:30:00,
2014-12-25 04:35:00,37.3,26.6,30.12,SW,219,3.0,4.0,65,0.00,,OVC,0.00,VWS V15.00,2014-12-25 09:35:00,
2014-12-25 04:40:00,37.3,26.6,30.12,SSW,196,6.0,7.0,65,0.00,,OVC,0.00,VWS V15.00,2014-12-25 09:40:00,
2014-12-25 04:46:00,37.7,26.6,30.12,SSW,196,7.0,8.0,64,0.00,,OVC,0.00,VWS V15.00,2014-12-25 09:46:00,
2014-12-25 04:52:00,38.1,27.0,30.11,SSW,207,5.0,8.0,64,0.00,,OVC,0.00,VWS V15.00,2014-12-25 09:52:00,
2014-12-25 04:58:00,38.4,26.9,30.11,SSW,199,4.0,10.0,63,0.00,,OVC,0.00,VWS V15.00,2014-12-25 09:58:00,
2014-12-25 05:03:00,38.4,26.9,30.10,SSW,198,3.0,8.0,63,0.00,,OVC,0.00,VWS V15.00,2014-12-25 10:03:00,
2014-12-25 05:08:00,38.5,27.0,30.10,SSW,211,4.0,9.0,63,0.00,,OVC,0.00,VWS V15.00,2014-12-25 10:08:00,
2014-12-25 05:13:00,38.7,27.2,30.10,SSW,212,5.0,9.0,63,0.00,,OVC,0.00,VWS V15.00,2014-12-25 10:13:00,
2014-12-25 05:19:00,38.9,27.4,30.10,SW,226,6.0,9.0,63,0.00,,OVC,0.00,VWS V15.00,2014-12-25 10:19:00,
2014-12-25 05:25:00,39.1,27.2,30.09,SSW,208,6.0,10.0,62,0.00,,OVC,0.00,VWS V15.00,2014-12-25 10:25:00,
2014-12-25 05:30:00,39.4,27.5,30.09,SW,216,7.0,8.0,62,0.00,,OVC,0.00,VWS V15.00,2014-12-25 10:30:00,
2014-12-25 05:36:00,39.5,27.6,30.09,WSW,239,8.0,11.0,62,0.00,,OVC,0.00,VWS V15.00,2014-12-25 10:36:00,
2014-12-25 05:41:00,39.5,27.6,30.09,SSW,206,8.0,11.0,62,0.00,,OVC,0.00,VWS V15.00,2014-12-25 10:41:00,
2014-12-25 05:46:00,39.6,27.3,30.09,SW,233,5.0,12.0,61,0.00,,OVC,0.00,VWS V15.00,2014-12-25 10:46:00,
2014-12-25 05:52:00,40.0,27.2,30.09,SSW,204,5.0,13.0,60,0.00,,OVC,0.00,VWS V15.00,2014-12-25 10:52:00,
2014-12-25 05:57:00,40.2,27.4,30.09,SSW,207,8.0,13.0,60,0.00,,OVC,0.00,VWS V15.00,2014-12-25 10:57:00,
2014-12-25 06:02:00,40.3,27.5,30.09,SW,219,6.0,12.0,60,0.00,,OVC,0.00,VWS V15.00,2014-12-25 11:02:00,
2014-12-25 06:08:00,40.5,27.3,30.09,SW,224,10.0,14.0,59,0.00,,OVC,0.00,VWS V15.00,2014-12-25 11:08:00,
2014-12-25 06:14:00,40.7,27.1,30.09,SW,214,7.0,14.0,58,0.00,,OVC,0.00,VWS V15.00,2014-12-25 11:14:00,
2014-12-25 06:19:00,41.0,27.0,30.09,SW,227,5.0,14.0,57,0.00,,OVC,0.00,VWS V15.00,2014-12-25 11:19:00,
2014-12-25 06:26:00,41.1,27.0,30.09,SW,220,8.0,14.0,57,0.00,,OVC,0.00,VWS V15.00,2014-12-25 11:26:00,
2014-12-25 06:31:00,41.0,27.0,30.09,SSW,205,5.0,13.0,57,0.00,,OVC,0.00,VWS V15.00,2014-12-25 11:31:00,
2014-12-25 06:37:00,40.8,26.8,30.09,South,179,5.0,13.0,57,0.00,,OVC,0.00,VWS V15.00,2014-12-25 11:37:00,
2014-12-25 07:41:00,39.4,25.9,30.09,SSW,194,5.0,8.0,58,0.00,,OVC,0.00,VWS V15.00,2014-12-25 12:41:00,
2014-12-25 07:46:00,39.5,26.0,30.09,South,190,4.0,8.0,58,0.00,,OVC,0.00,VWS V15.00,2014-12-25 12:46:00,
2014-12-25 07:51:00,39.6,25.6,30.08,SSW,198,3.0,8.0,57,0.00,,OVC,0.00,VWS V15.00,2014-12-25 12:51:00,
2014-12-25 07:56:00,39.1,25.6,30.09,SSW,200,3.0,8.0,58,0.00,,OVC,0.00,VWS V15.00,2014-12-25 12:56:00,
2014-12-25 08:01:00,38.8,25.7,30.09,SSW,210,2.0,4.0,59,0.00,,OVC,0.00,VWS V15.00,2014-12-25 13:01:00,
2014-12-25 08:07:00,39.1,26.0,30.08,SW,217,4.0,6.0,59,0.00,,OVC,0.00,VWS V15.00,2014-12-25 13:07:00,
2014-12-25 08:12:00,39.3,25.8,30.08,SSW,196,5.0,7.0,58,0.00,,OVC,0.00,VWS V15.00,2014-12-25 13:12:00,
2014-12-25 08:17:00,39.5,26.0,30.08,SSW,192,4.0,11.0,58,0.00,,OVC,0.00,VWS V15.00,2014-12-25 13:17:00,
2014-12-25 08:22:00,39.7,26.1,30.08,SSW,209,3.0,11.0,58,0.00,,OVC,0.00,VWS V15.00,2014-12-25 13:22:00,
2014-12-25 08:27:00,39.9,25.9,30.08,SW,234,8.0,11.0,57,0.00,,OVC,0.00,VWS V15.00,2014-12-25 13:27:00,
2014-12-25 08:32:00,40.4,26.0,30.08,SSW,198,9.0,13.0,56,0.00,,OVC,0.00,VWS V15.00,2014-12-25 13:32:00,
2014-12-25 08:37:00,41.2,25.8,30.08,SSW,206,14.0,15.0,54,0.00,,OVC,0.00,VWS V15.00,2014-12-25 13:37:00,
2014-12-25 08:42:00,41.9,26.0,30.08,SSW,208,8.0,17.0,53,0.00,,OVC,0.00,VWS V15.00,2014-12-25 13:42:00,
2014-12-25 08:48:00,42.2,25.9,30.08,South,176,10.0,21.0,52,0.00,,OVC,0.00,VWS V15.00,2014-12-25 13:48:00,
2014-12-25 10:10:00,48.9,26.2,30.11,SSW,208,19.0,25.0,41,0.00,,OVC,0.00,VWS V15.00,2014-12-25 15:10:00,
2014-12-25 10:15:00,49.1,27.0,30.11,SSW,201,16.0,25.0,42,0.00,,OVC,0.00,VWS V15.00,2014-12-25 15:15:00,
2014-12-25 10:21:00,49.3,27.2,30.12,SW,219,10.0,25.0,42,0.00,,OVC,0.00,VWS V15.00,2014-12-25 15:21:00,
2014-12-25 10:26:00,49.6,26.3,30.12,SW,224,14.0,25.0,40,0.00,,OVC,0.00,VWS V15.00,2014-12-25 15:26:00,
2014-12-25 10:32:00,49.8,26.5,30.13,SSW,205,8.0,18.0,40,0.00,,OVC,0.00,VWS V15.00,2014-12-25 15:32:00,
2014-12-25 10:40:00,50.1,26.7,30.13,South,189,11.0,21.0,40,0.00,,OVC,0.00,VWS V15.00,2014-12-25 15:40:00,
2014-12-25 10:45:00,50.5,27.1,30.13,SW,226,10.0,21.0,40,0.00,,OVC,0.00,VWS V15.00,2014-12-25 15:45:00,
2014-12-25 10:51:00,50.9,27.5,30.13,SSW,210,13.0,21.0,40,0.00,,OVC,0.00,VWS V15.00,2014-12-25 15:51:00,
2014-12-25 10:56:00,51.4,26.7,30.13,SSW,210,14.0,21.0,38,0.00,,OVC,0.00,VWS V15.00,2014-12-25 15:56:00,
2014-12-25 11:03:00,52.0,27.2,30.13,SW,228,14.0,21.0,38,0.00,,OVC,0.00,VWS V15.00,2014-12-25 16:03:00,
2014-12-25 11:08:00,52.2,26.7,30.13,SW,219,9.0,21.0,37,0.00,,OVC,0.00,VWS V15.00,2014-12-25 16:08:00,
2014-12-25 11:13:00,52.4,26.2,30.13,SW,221,12.0,21.0,36,0.00,,OVC,0.00,VWS V15.00,2014-12-25 16:13:00,
2014-12-25 11:18:00,52.8,27.3,30.13,SW,224,13.0,21.0,37,0.00,,OVC,0.00,VWS V15.00,2014-12-25 16:18:00,
2014-12-25 11:23:00,53.1,26.2,30.13,SW,229,19.0,21.0,35,0.00,,OVC,0.00,VWS V15.00,2014-12-25 16:23:00,
2014-12-25 11:28:00,53.5,26.5,30.12,SW,219,10.0,21.0,35,0.00,,OVC,0.00,VWS V15.00,2014-12-25 16:28:00,
2014-12-25 11:34:00,53.6,25.9,30.12,SW,233,15.0,23.0,34,0.00,,OVC,0.00,VWS V15.00,2014-12-25 16:34:00,
2014-12-25 11:41:00,54.1,27.1,30.11,WSW,248,9.0,23.0,35,0.00,,OVC,0.00,VWS V15.00,2014-12-25 16:41:00,
2014-12-25 11:46:00,54.7,26.2,30.11,SSE,165,14.0,23.0,33,0.00,,OVC,0.00,VWS V15.00,2014-12-25 16:46:00,
2014-12-25 11:51:00,54.7,25.4,30.11,SSW,206,16.0,23.0,32,0.00,,OVC,0.00,VWS V15.00,2014-12-25 16:51:00,
2014-12-25 11:56:00,54.5,25.3,30.11,SSW,205,13.0,23.0,32,0.00,,OVC,0.00,VWS V15.00,2014-12-25 16:56:00,
2014-12-25 12:01:00,54.8,24.8,30.12,SSE,164,20.0,21.0,31,0.00,,OVC,0.00,VWS V15.00,2014-12-25 17:01:00,
2014-12-25 12:07:00,55.1,25.8,30.11,SW,214,10.0,24.0,32,0.00,,OVC,0.00,VWS V15.00,2014-12-25 17:07:00,
2014-12-25 12:12:00,55.2,25.1,30.10,SSW,193,15.0,24.0,31,0.00,,OVC,0.00,VWS V15.00,2014-12-25 17:12:00,
2014-12-25 12:18:00,55.8,25.6,30.10,SSW,205,14.0,24.0,31,0.00,,OVC,0.00,VWS V15.00,2014-12-25 17:18:00,
2014-12-25 12:24:00,56.6,26.3,30.10,SW,226,16.0,24.0,31,0.00,,OVC,0.00,VWS V15.00,2014-12-25 17:24:00,
2014-12-25 12:29:00,56.8,25.7,30.10,SSW,212,21.0,24.0,30,0.00,,OVC,0.00,VWS V15.00,2014-12-25 17:29:00,
2014-12-25 12:34:00,56.7,25.6,30.09,South,191,15.0,22.0,30,0.00,,OVC,0.00,VWS V15.00,2014-12-25 17:34:00,
2014-12-25 12:39:00,57.3,27.0,30.09,South,180,16.0,22.0,31,0.00,,OVC,0.00,VWS V15.00,2014-12-25 17:39:00,
2014-12-25 12:45:00,57.7,25.7,30.08,SSW,198,14.0,22.0,29,0.00,,OVC,0.00,VWS V15.00,2014-12-25 17:45:00,
2014-12-25 12:52:00,57.8,24.9,30.08,SSW,211,9.0,23.0,28,0.00,,OVC,0.00,VWS V15.00,2014-12-25 17:52:00,
2014-12-25 12:58:00,58.0,25.1,30.07,SSW,212,17.0,25.0,28,0.00,,OVC,0.00,VWS V15.00,2014-12-25 17:58:00,
2014-12-25 13:03:00,57.8,23.2,30.06,SSW,204,23.0,27.0,26,0.00,,OVC,0.00,VWS V15.00,2014-12-25 18:03:00,
2014-12-25 13:08:00,57.7,24.0,30.06,SSW,197,13.0,28.0,27,0.00,,OVC,0.00,VWS V15.00,2014-12-25 18:08:00,
2014-12-25 13:13:00,58.1,23.4,30.06,SSW,210,17.0,28.0,26,0.00,,OVC,0.00,VWS V15.00,2014-12-25 18:13:00,
2014-12-25 13:19:00,58.3,24.5,30.05,SSW,198,17.0,28.0,27,0.00,,OVC,0.00,VWS V15.00,2014-12-25 18:19:00,
2014-12-25 13:24:00,58.6,24.8,30.05,SSW,210,14.0,28.0,27,0.00,,OVC,0.00,VWS V15.00,2014-12-25 18:24:00,
2014-12-25 13:29:00,58.9,25.0,30.05,SSW,203,21.0,28.0,27,0.00,,OVC,0.00,VWS V15.00,2014-12-25 18:29:00,
2014-12-25 13:34:00,59.1,24.3,30.05,SSW,212,19.0,23.0,26,0.00,,OVC,0.00,VWS V15.00,2014-12-25 18:34:00,
2014-12-25 13:40:00,59.6,24.7,30.05,SSW,203,11.0,23.0,26,0.00,,OVC,0.00,VWS V15.00,2014-12-25 18:40:00,
2014-12-25 13:45:00,59.6,23.8,30.04,South,182,16.0,26.0,25,0.00,,OVC,0.00,VWS V15.00,2014-12-25 18:45:00,
2014-12-25 13:50:00,59.4,24.5,30.04,SW,216,22.0,26.0,26,0.00,,OVC,0.00,VWS V15.00,2014-12-25 18:50:00,
2014-12-25 13:55:00,59.5,23.7,30.03,SSW,209,22.0,30.0,25,0.00,,OVC,0.00,VWS V15.00,2014-12-25 18:55:00,
2014-12-25 14:00:00,59.6,23.8,30.03,SW,218,19.0,30.0,25,0.00,,OVC,0.00,VWS V15.00,2014-12-25 19:00:00,
2014-12-25 14:05:00,60.1,24.2,30.03,SW,214,15.0,23.0,25,0.00,,OVC,0.00,VWS V15.00,2014-12-25 19:05:00,
2014-12-25 14:10:00,60.4,24.4,30.02,SW,222,19.0,27.0,25,0.00,,OVC,0.00,VWS V15.00,2014-12-25 19:10:00,
2014-12-25 14:16:00,60.5,25.5,30.02,SSW,197,8.0,27.0,26,0.00,,OVC,0.00,VWS V15.00,2014-12-25 19:16:00,
2014-12-25 14:21:00,60.7,24.7,30.02,SSW,202,16.0,28.0,25,0.00,,OVC,0.00,VWS V15.00,2014-12-25 19:21:00,
2014-12-25 14:26:00,60.6,25.5,30.02,SSW,213,14.0,28.0,26,0.00,,OVC,0.00,VWS V15.00,2014-12-25 19:26:00,
2014-12-25 14:31:00,61.1,26.0,30.01,SW,231,16.0,17.0,26,0.00,,OVC,0.00,VWS V15.00,2014-12-25 19:31:00,
2014-12-25 14:36:00,61.1,26.0,30.01,SSW,205,10.0,26.0,26,0.00,,OVC,0.00,VWS V15.00,2014-12-25 19:36:00,
2014-12-25 14:41:00,61.3,26.1,30.01,South,182,15.0,26.0,26,0.00,,OVC,0.00,VWS V15.00,2014-12-25 19:41:00,
2014-12-25 14:46:00,61.3,26.1,30.01,SSW,197,17.0,26.0,26,0.00,,OVC,0.00,VWS V15.00,2014-12-25 19:46:00,
2014-12-25 14:51:00,61.6,26.4,30.01,SSE,160,19.0,26.0,26,0.00,,OVC,0.00,VWS V15.00,2014-12-25 19:51:00,
2014-12-25 14:56:00,61.8,26.6,30.00,SSW,210,17.0,26.0,26,0.00,,OVC,0.00,VWS V15.00,2014-12-25 19:56:00,
2014-12-25 15:01:00,62.0,26.8,30.00,SSW,212,14.0,21.0,26,0.00,,OVC,0.00,VWS V15.00,2014-12-25 20:01:00,
2014-12-25 15:07:00,61.7,27.4,30.00,SW,217,17.0,21.0,27,0.00,,OVC,0.00,VWS V15.00,2014-12-25 20:07:00,
2014-12-25 15:12:00,62.1,28.6,30.00,South,169,7.0,21.0,28,0.00,,OVC,0.00,VWS V15.00,2014-12-25 20:12:00,
2014-12-25 15:17:00,62.4,28.0,29.99,SE,139,14.0,21.0,27,0.00,,OVC,0.00,VWS V15.00,2014-12-25 20:17:00,
2014-12-25 15:22:00,62.2,27.8,29.99,SSW,194,15.0,25.0,27,0.00,,OVC,0.00,VWS V15.00,2014-12-25 20:22:00,
2014-12-25 15:28:00,62.1,28.6,29.99,SSE,159,6.0,25.0,28,0.00,,OVC,0.00,VWS V15.00,2014-12-25 20:28:00,
2014-12-25 15:33:00,62.6,29.1,29.99,South,189,9.0,21.0,28,0.00,,OVC,0.00,VWS V15.00,2014-12-25 20:33:00,
2014-12-25 15:38:00,62.6,28.2,29.99,SSW,203,24.0,26.0,27,0.00,,OVC,0.00,VWS V15.00,2014-12-25 20:38:00,
2014-12-25 15:43:00,62.4,28.9,29.99,SW,214,16.0,26.0,28,0.00,,OVC,0.00,VWS V15.00,2014-12-25 20:43:00,
2014-12-25 15:48:00,62.1,28.6,29.99,SW,216,20.0,26.0,28,0.00,,OVC,0.00,VWS V15.00,2014-12-25 20:48:00,
2014-12-25 15:53:00,62.3,28.8,29.99,SSW,192,18.0,26.0,28,0.00,,OVC,0.00,VWS V15.00,2014-12-25 20:53:00,
2014-12-25 15:58:00,62.2,28.7,29.98,SSW,210,16.0,26.0,28,0.00,,OVC,0.00,VWS V15.00,2014-12-25 20:58:00,
2014-12-25 16:03:00,62.4,28.9,29.98,SSW,201,13.0,23.0,28,0.00,,OVC,0.00,VWS V15.00,2014-12-25 21:03:00,
2014-12-25 16:08:00,62.7,29.1,29.98,South,174,21.0,24.0,28,0.00,,OVC,0.00,VWS V15.00,2014-12-25 21:08:00,
2014-12-25 16:13:00,62.3,28.8,29.98,SW,224,14.0,29.0,28,0.00,,OVC,0.00,VWS V15.00,2014-12-25 21:13:00,
2014-12-25 16:18:00,62.4,29.8,29.98,SSW,203,14.0,29.0,29,0.00,,OVC,0.00,VWS V15.00,2014-12-25 21:18:00,
2014-12-25 16:23:00,62.6,29.1,29.98,SSE,160,16.0,29.0,28,0.00,,OVC,0.00,VWS V15.00,2014-12-25 21:23:00,
2014-12-25 16:29:00,62.3,28.8,29.98,South,186,14.0,29.0,28,0.00,,OVC,0.00,VWS V15.00,2014-12-25 21:29:00,
2014-12-25 16:34:00,62.3,29.7,29.98,SW,216,16.0,22.0,29,0.00,,OVC,0.00,VWS V15.00,2014-12-25 21:34:00,
2014-12-25 16:39:00,62.3,29.7,29.98,South,176,21.0,24.0,29,0.00,,OVC,0.00,VWS V15.00,2014-12-25 21:39:00,
2014-12-25 16:44:00,62.0,29.4,29.98,SSW,195,11.0,24.0,29,0.00,,OVC,0.00,VWS V15.00,2014-12-25 21:44:00,